sensor_id;sensor_type;location;lat;lon;timestamp;P1;durP1;ratioP1;P2;durP2;ratioP2
59167;SDS011;44948;55.046;73.266;2023-04-24T00:02:08;14.19;;;5.60;;
59167;SDS011;44948;55.046;73.266;2023-04-24T00:05:13;15.88;;;6.20;;
59167;SDS011;44948;55.046;73.266;2023-04-24T00:08:20;11.38;;;5.70;;
59167;SDS011;44948;55.046;73.266;2023-04-24T00:11:30;13.90;;;5.90;;
59167;SDS011;44948;55.046;73.266;2023-04-24T00:14:32;10.40;;;4.88;;
59167;SDS011;44948;55.046;73.266;2023-04-24T00:17:43;14.88;;;5.68;;
59167;SDS011;44948;55.046;73.266;2023-04-24T00:20:45;13.95;;;6.05;;
59167;SDS011;44948;55.046;73.266;2023-04-24T00:23:48;17.85;;;6.75;;
59167;SDS011;44948;55.046;73.266;2023-04-24T00:26:54;15.20;;;6.05;;
59167;SDS011;44948;55.046;73.266;2023-04-24T00:29:56;10.88;;;5.50;;
59167;SDS011;44948;55.046;73.266;2023-04-24T00:32:57;14.65;;;5.95;;
59167;SDS011;44948;55.046;73.266;2023-04-24T00:35:59;22.30;;;7.07;;
59167;SDS011;44948;55.046;73.266;2023-04-24T00:39:02;16.40;;;7.25;;
59167;SDS011;44948;55.046;73.266;2023-04-24T00:42:04;16.17;;;7.63;;
59167;SDS011;44948;55.046;73.266;2023-04-24T00:45:08;18.13;;;7.78;;
59167;SDS011;44948;55.046;73.266;2023-04-24T00:48:20;24.25;;;8.88;;
59167;SDS011;44948;55.046;73.266;2023-04-24T00:51:23;20.42;;;9.95;;
59167;SDS011;44948;55.046;73.266;2023-04-24T00:54:26;24.88;;;8.35;;
59167;SDS011;44948;55.046;73.266;2023-04-24T00:57:28;14.55;;;7.05;;
59167;SDS011;44948;55.046;73.266;2023-04-24T01:00:35;15.25;;;8.07;;
59167;SDS011;44948;55.046;73.266;2023-04-24T01:03:37;13.52;;;7.78;;
59167;SDS011;44948;55.046;73.266;2023-04-24T01:06:44;15.48;;;6.93;;
59167;SDS011;44948;55.046;73.266;2023-04-24T01:09:47;13.52;;;5.65;;
59167;SDS011;44948;55.046;73.266;2023-04-24T01:12:50;16.07;;;6.53;;
59167;SDS011;44948;55.046;73.266;2023-04-24T01:15:52;12.80;;;6.00;;
59167;SDS011;44948;55.046;73.266;2023-04-24T01:18:54;11.43;;;5.45;;
59167;SDS011;44948;55.046;73.266;2023-04-24T01:21:57;12.35;;;5.72;;
59167;SDS011;44948;55.046;73.266;2023-04-24T01:25:04;15.73;;;5.90;;
59167;SDS011;44948;55.046;73.266;2023-04-24T01:28:07;13.13;;;6.43;;
59167;SDS011;44948;55.046;73.266;2023-04-24T01:31:11;13.20;;;7.68;;
59167;SDS011;44948;55.046;73.266;2023-04-24T01:34:18;18.30;;;8.13;;
59167;SDS011;44948;55.046;73.266;2023-04-24T01:37:21;19.23;;;9.15;;
59167;SDS011;44948;55.046;73.266;2023-04-24T01:40:27;17.38;;;9.18;;
59167;SDS011;44948;55.046;73.266;2023-04-24T01:43:32;24.85;;;11.77;;
59167;SDS011;44948;55.046;73.266;2023-04-24T01:46:34;33.35;;;16.45;;
59167;SDS011;44948;55.046;73.266;2023-04-24T01:49:39;27.63;;;14.30;;
59167;SDS011;44948;55.046;73.266;2023-04-24T01:55:47;22.38;;;9.73;;
59167;SDS011;44948;55.046;73.266;2023-04-24T01:58:49;19.70;;;9.20;;
59167;SDS011;44948;55.046;73.266;2023-04-24T02:01:52;15.75;;;7.20;;
59167;SDS011;44948;55.046;73.266;2023-04-24T02:04:54;17.35;;;5.57;;
59167;SDS011;44948;55.046;73.266;2023-04-24T02:07:56;14.77;;;6.32;;
59167;SDS011;44948;55.046;73.266;2023-04-24T02:10:58;15.07;;;6.30;;
59167;SDS011;44948;55.046;73.266;2023-04-24T02:14:00;11.52;;;5.15;;
59167;SDS011;44948;55.046;73.266;2023-04-24T02:17:02;13.40;;;6.28;;
59167;SDS011;44948;55.046;73.266;2023-04-24T02:20:06;13.70;;;6.32;;
59167;SDS011;44948;55.046;73.266;2023-04-24T02:23:08;15.68;;;7.53;;
59167;SDS011;44948;55.046;73.266;2023-04-24T02:26:10;15.07;;;5.22;;
59167;SDS011;44948;55.046;73.266;2023-04-24T02:29:22;18.73;;;6.97;;
59167;SDS011;44948;55.046;73.266;2023-04-24T02:32:25;15.80;;;7.20;;
59167;SDS011;44948;55.046;73.266;2023-04-24T02:35:37;16.40;;;8.23;;
59167;SDS011;44948;55.046;73.266;2023-04-24T02:38:44;12.02;;;6.15;;
59167;SDS011;44948;55.046;73.266;2023-04-24T02:41:48;12.60;;;5.25;;
59167;SDS011;44948;55.046;73.266;2023-04-24T02:44:51;12.18;;;5.47;;
59167;SDS011;44948;55.046;73.266;2023-04-24T02:47:53;10.45;;;5.28;;
59167;SDS011;44948;55.046;73.266;2023-04-24T02:50:55;20.58;;;6.70;;
59167;SDS011;44948;55.046;73.266;2023-04-24T02:54:01;21.27;;;7.95;;
59167;SDS011;44948;55.046;73.266;2023-04-24T02:57:08;22.85;;;9.02;;
59167;SDS011;44948;55.046;73.266;2023-04-24T03:00:13;28.88;;;9.93;;
59167;SDS011;44948;55.046;73.266;2023-04-24T03:03:16;25.27;;;11.20;;
59167;SDS011;44948;55.046;73.266;2023-04-24T03:06:18;26.55;;;10.70;;
59167;SDS011;44948;55.046;73.266;2023-04-24T03:09:20;41.90;;;17.00;;
59167;SDS011;44948;55.046;73.266;2023-04-24T03:12:24;49.47;;;18.23;;
59167;SDS011;44948;55.046;73.266;2023-04-24T03:15:27;51.57;;;17.43;;
59167;SDS011;44948;55.046;73.266;2023-04-24T03:18:29;35.67;;;15.35;;
59167;SDS011;44948;55.046;73.266;2023-04-24T03:21:32;39.58;;;16.45;;
59167;SDS011;44948;55.046;73.266;2023-04-24T03:24:46;22.40;;;10.63;;
59167;SDS011;44948;55.046;73.266;2023-04-24T03:27:52;25.80;;;11.23;;
59167;SDS011;44948;55.046;73.266;2023-04-24T03:31:23;30.40;;;10.77;;
59167;SDS011;44948;55.046;73.266;2023-04-24T03:34:30;27.85;;;10.75;;
59167;SDS011;44948;55.046;73.266;2023-04-24T03:37:34;16.55;;;7.47;;
59167;SDS011;44948;55.046;73.266;2023-04-24T03:40:55;12.50;;;6.45;;
59167;SDS011;44948;55.046;73.266;2023-04-24T03:44:30;26.02;;;11.07;;
59167;SDS011;44948;55.046;73.266;2023-04-24T03:47:32;25.88;;;9.27;;
59167;SDS011;44948;55.046;73.266;2023-04-24T03:50:36;26.02;;;9.45;;
59167;SDS011;44948;55.046;73.266;2023-04-24T03:53:39;18.38;;;7.05;;
59167;SDS011;44948;55.046;73.266;2023-04-24T03:56:43;25.90;;;9.48;;
59167;SDS011;44948;55.046;73.266;2023-04-24T03:59:46;30.42;;;12.35;;
59167;SDS011;44948;55.046;73.266;2023-04-24T04:02:52;26.65;;;11.15;;
59167;SDS011;44948;55.046;73.266;2023-04-24T04:05:54;29.90;;;11.57;;
59167;SDS011;44948;55.046;73.266;2023-04-24T04:09:00;17.42;;;8.55;;
59167;SDS011;44948;55.046;73.266;2023-04-24T04:12:02;22.15;;;9.40;;
59167;SDS011;44948;55.046;73.266;2023-04-24T04:15:05;16.35;;;8.23;;
59167;SDS011;44948;55.046;73.266;2023-04-24T04:18:18;16.02;;;6.43;;
59167;SDS011;44948;55.046;73.266;2023-04-24T04:21:30;15.20;;;5.68;;
59167;SDS011;44948;55.046;73.266;2023-04-24T04:24:56;17.98;;;5.75;;
59167;SDS011;44948;55.046;73.266;2023-04-24T04:28:00;12.18;;;5.68;;
59167;SDS011;44948;55.046;73.266;2023-04-24T04:31:03;11.88;;;5.68;;
59167;SDS011;44948;55.046;73.266;2023-04-24T04:34:10;11.18;;;5.28;;
59167;SDS011;44948;55.046;73.266;2023-04-24T04:37:15;13.38;;;5.00;;
59167;SDS011;44948;55.046;73.266;2023-04-24T04:40:35;19.90;;;7.55;;
59167;SDS011;44948;55.046;73.266;2023-04-24T04:43:40;18.15;;;7.88;;
59167;SDS011;44948;55.046;73.266;2023-04-24T04:46:43;24.92;;;9.00;;
59167;SDS011;44948;55.046;73.266;2023-04-24T04:50:11;25.13;;;8.63;;
59167;SDS011;44948;55.046;73.266;2023-04-24T04:53:18;25.45;;;8.73;;
59167;SDS011;44948;55.046;73.266;2023-04-24T04:56:21;15.75;;;6.10;;
59167;SDS011;44948;55.046;73.266;2023-04-24T04:59:24;9.93;;;4.95;;
59167;SDS011;44948;55.046;73.266;2023-04-24T05:02:33;7.82;;;4.15;;
59167;SDS011;44948;55.046;73.266;2023-04-24T05:05:35;10.20;;;4.60;;
59167;SDS011;44948;55.046;73.266;2023-04-24T05:08:45;7.35;;;4.20;;
59167;SDS011;44948;55.046;73.266;2023-04-24T05:11:59;7.10;;;3.55;;
59167;SDS011;44948;55.046;73.266;2023-04-24T05:15:05;11.20;;;4.70;;
59167;SDS011;44948;55.046;73.266;2023-04-24T05:18:07;10.00;;;4.85;;
59167;SDS011;44948;55.046;73.266;2023-04-24T05:21:18;15.15;;;6.20;;
59167;SDS011;44948;55.046;73.266;2023-04-24T05:24:24;15.85;;;5.22;;
59167;SDS011;44948;55.046;73.266;2023-04-24T05:27:26;12.70;;;4.82;;
59167;SDS011;44948;55.046;73.266;2023-04-24T05:30:28;8.63;;;4.45;;
59167;SDS011;44948;55.046;73.266;2023-04-24T05:33:30;14.75;;;6.57;;
59167;SDS011;44948;55.046;73.266;2023-04-24T05:36:32;12.00;;;4.50;;
59167;SDS011;44948;55.046;73.266;2023-04-24T05:39:35;5.35;;;3.53;;
59167;SDS011;44948;55.046;73.266;2023-04-24T05:42:38;8.38;;;3.38;;
59167;SDS011;44948;55.046;73.266;2023-04-24T05:45:40;5.85;;;3.20;;
59167;SDS011;44948;55.046;73.266;2023-04-24T05:48:47;5.32;;;3.10;;
59167;SDS011;44948;55.046;73.266;2023-04-24T05:51:55;8.93;;;4.10;;
59167;SDS011;44948;55.046;73.266;2023-04-24T05:54:57;7.10;;;3.70;;
59167;SDS011;44948;55.046;73.266;2023-04-24T05:58:09;6.72;;;3.35;;
59167;SDS011;44948;55.046;73.266;2023-04-24T06:01:13;6.03;;;3.45;;
59167;SDS011;44948;55.046;73.266;2023-04-24T06:04:27;22.10;;;7.28;;
59167;SDS011;44948;55.046;73.266;2023-04-24T06:07:29;30.70;;;9.00;;
59167;SDS011;44948;55.046;73.266;2023-04-24T06:10:31;14.10;;;4.85;;
59167;SDS011;44948;55.046;73.266;2023-04-24T06:13:39;30.55;;;7.13;;
59167;SDS011;44948;55.046;73.266;2023-04-24T06:17:00;7.35;;;3.42;;
59167;SDS011;44948;55.046;73.266;2023-04-24T06:20:20;17.75;;;6.28;;
59167;SDS011;44948;55.046;73.266;2023-04-24T06:23:22;22.27;;;7.72;;
59167;SDS011;44948;55.046;73.266;2023-04-24T06:26:24;9.10;;;3.85;;
59167;SDS011;44948;55.046;73.266;2023-04-24T06:29:28;19.27;;;5.32;;
59167;SDS011;44948;55.046;73.266;2023-04-24T06:32:40;31.35;;;8.35;;
59167;SDS011;44948;55.046;73.266;2023-04-24T06:35:47;22.83;;;5.20;;
59167;SDS011;44948;55.046;73.266;2023-04-24T06:38:49;19.10;;;5.18;;
59167;SDS011;44948;55.046;73.266;2023-04-24T06:41:52;28.48;;;7.88;;
59167;SDS011;44948;55.046;73.266;2023-04-24T06:44:55;29.15;;;8.45;;
59167;SDS011;44948;55.046;73.266;2023-04-24T06:48:07;6.53;;;3.55;;
59167;SDS011;44948;55.046;73.266;2023-04-24T06:51:09;11.10;;;3.72;;
59167;SDS011;44948;55.046;73.266;2023-04-24T06:54:14;75.57;;;15.70;;
59167;SDS011;44948;55.046;73.266;2023-04-24T06:57:17;36.25;;;9.30;;
59167;SDS011;44948;55.046;73.266;2023-04-24T07:00:19;7.57;;;3.25;;
59167;SDS011;44948;55.046;73.266;2023-04-24T07:03:21;3.47;;;1.77;;
59167;SDS011;44948;55.046;73.266;2023-04-24T07:06:23;7.83;;;2.70;;
59167;SDS011;44948;55.046;73.266;2023-04-24T07:09:30;38.90;;;7.72;;
59167;SDS011;44948;55.046;73.266;2023-04-24T07:12:33;10.98;;;4.50;;
59167;SDS011;44948;55.046;73.266;2023-04-24T07:15:41;4.93;;;2.35;;
59167;SDS011;44948;55.046;73.266;2023-04-24T07:18:43;9.90;;;2.30;;
59167;SDS011;44948;55.046;73.266;2023-04-24T07:21:45;23.40;;;5.38;;
59167;SDS011;44948;55.046;73.266;2023-04-24T07:24:47;22.10;;;5.63;;
59167;SDS011;44948;55.046;73.266;2023-04-24T07:27:49;22.77;;;5.82;;
59167;SDS011;44948;55.046;73.266;2023-04-24T07:30:51;11.80;;;4.05;;
59167;SDS011;44948;55.046;73.266;2023-04-24T07:33:55;22.80;;;5.40;;
59167;SDS011;44948;55.046;73.266;2023-04-24T07:36:59;9.63;;;3.63;;
59167;SDS011;44948;55.046;73.266;2023-04-24T07:40:01;10.27;;;3.75;;
59167;SDS011;44948;55.046;73.266;2023-04-24T07:43:05;11.30;;;3.38;;
59167;SDS011;44948;55.046;73.266;2023-04-24T07:46:10;11.90;;;3.47;;
59167;SDS011;44948;55.046;73.266;2023-04-24T07:49:23;24.83;;;6.87;;
59167;SDS011;44948;55.046;73.266;2023-04-24T07:52:25;9.52;;;3.58;;
59167;SDS011;44948;55.046;73.266;2023-04-24T07:55:27;20.38;;;5.28;;
59167;SDS011;44948;55.046;73.266;2023-04-24T07:58:34;4.97;;;2.33;;
59167;SDS011;44948;55.046;73.266;2023-04-24T08:01:37;4.95;;;2.28;;
59167;SDS011;44948;55.046;73.266;2023-04-24T08:04:50;6.10;;;2.55;;
59167;SDS011;44948;55.046;73.266;2023-04-24T08:08:01;5.57;;;2.75;;
59167;SDS011;44948;55.046;73.266;2023-04-24T08:11:03;5.00;;;2.97;;
59167;SDS011;44948;55.046;73.266;2023-04-24T08:14:05;9.35;;;3.13;;
59167;SDS011;44948;55.046;73.266;2023-04-24T08:17:07;5.82;;;3.50;;
59167;SDS011;44948;55.046;73.266;2023-04-24T08:20:10;6.88;;;4.13;;
59167;SDS011;44948;55.046;73.266;2023-04-24T08:23:20;7.28;;;3.63;;
59167;SDS011;44948;55.046;73.266;2023-04-24T08:26:22;18.83;;;5.00;;
59167;SDS011;44948;55.046;73.266;2023-04-24T08:29:24;9.57;;;3.70;;
59167;SDS011;44948;55.046;73.266;2023-04-24T08:32:26;9.43;;;3.75;;
59167;SDS011;44948;55.046;73.266;2023-04-24T08:35:41;15.38;;;5.45;;
59167;SDS011;44948;55.046;73.266;2023-04-24T08:38:46;32.28;;;5.55;;
59167;SDS011;44948;55.046;73.266;2023-04-24T08:41:52;11.43;;;5.63;;
59167;SDS011;44948;55.046;73.266;2023-04-24T08:45:00;33.88;;;7.00;;
59167;SDS011;44948;55.046;73.266;2023-04-24T08:48:02;17.13;;;4.75;;
59167;SDS011;44948;55.046;73.266;2023-04-24T08:51:04;9.48;;;2.83;;
59167;SDS011;44948;55.046;73.266;2023-04-24T08:54:14;3.67;;;1.90;;
59167;SDS011;44948;55.046;73.266;2023-04-24T08:57:16;16.37;;;2.67;;
59167;SDS011;44948;55.046;73.266;2023-04-24T09:00:19;37.58;;;5.15;;
59167;SDS011;44948;55.046;73.266;2023-04-24T09:03:24;18.42;;;4.63;;
59167;SDS011;44948;55.046;73.266;2023-04-24T09:06:28;17.13;;;4.82;;
59167;SDS011;44948;55.046;73.266;2023-04-24T09:09:30;22.02;;;4.95;;
59167;SDS011;44948;55.046;73.266;2023-04-24T09:12:44;9.40;;;2.85;;
59167;SDS011;44948;55.046;73.266;2023-04-24T09:15:47;5.90;;;1.70;;
59167;SDS011;44948;55.046;73.266;2023-04-24T09:18:49;3.25;;;1.60;;
59167;SDS011;44948;55.046;73.266;2023-04-24T09:21:52;3.85;;;2.40;;
59167;SDS011;44948;55.046;73.266;2023-04-24T09:25:04;5.57;;;2.03;;
59167;SDS011;44948;55.046;73.266;2023-04-24T09:28:14;7.85;;;2.10;;
59167;SDS011;44948;55.046;73.266;2023-04-24T09:31:18;6.70;;;2.00;;
59167;SDS011;44948;55.046;73.266;2023-04-24T09:34:26;10.93;;;3.28;;
59167;SDS011;44948;55.046;73.266;2023-04-24T09:37:29;14.00;;;3.30;;
59167;SDS011;44948;55.046;73.266;2023-04-24T09:40:31;13.35;;;2.70;;
59167;SDS011;44948;55.046;73.266;2023-04-24T09:43:36;7.07;;;2.72;;
59167;SDS011;44948;55.046;73.266;2023-04-24T09:46:38;13.85;;;2.67;;
59167;SDS011;44948;55.046;73.266;2023-04-24T09:49:40;8.05;;;1.77;;
59167;SDS011;44948;55.046;73.266;2023-04-24T09:52:46;8.80;;;2.00;;
59167;SDS011;44948;55.046;73.266;2023-04-24T09:55:54;24.20;;;4.07;;
59167;SDS011;44948;55.046;73.266;2023-04-24T09:59:00;32.05;;;5.53;;
59167;SDS011;44948;55.046;73.266;2023-04-24T10:02:16;16.08;;;2.22;;
59167;SDS011;44948;55.046;73.266;2023-04-24T10:05:18;4.15;;;1.20;;
59167;SDS011;44948;55.046;73.266;2023-04-24T10:08:20;17.30;;;2.30;;
59167;SDS011;44948;55.046;73.266;2023-04-24T10:11:23;8.32;;;1.83;;
59167;SDS011;44948;55.046;73.266;2023-04-24T10:14:25;11.02;;;1.85;;
59167;SDS011;44948;55.046;73.266;2023-04-24T10:17:27;40.03;;;4.53;;
59167;SDS011;44948;55.046;73.266;2023-04-24T10:20:30;29.10;;;4.57;;
59167;SDS011;44948;55.046;73.266;2023-04-24T10:23:32;22.38;;;3.25;;
59167;SDS011;44948;55.046;73.266;2023-04-24T10:26:35;15.10;;;1.58;;
59167;SDS011;44948;55.046;73.266;2023-04-24T10:29:39;49.03;;;7.03;;
59167;SDS011;44948;55.046;73.266;2023-04-24T10:32:42;51.53;;;8.25;;
59167;SDS011;44948;55.046;73.266;2023-04-24T10:35:45;15.32;;;2.78;;
59167;SDS011;44948;55.046;73.266;2023-04-24T10:38:50;4.32;;;1.50;;
59167;SDS011;44948;55.046;73.266;2023-04-24T10:41:52;9.93;;;1.85;;
59167;SDS011;44948;55.046;73.266;2023-04-24T10:44:55;13.57;;;2.42;;
59167;SDS011;44948;55.046;73.266;2023-04-24T10:48:07;2.43;;;1.20;;
59167;SDS011;44948;55.046;73.266;2023-04-24T10:51:14;10.98;;;2.03;;
59167;SDS011;44948;55.046;73.266;2023-04-24T10:54:30;17.70;;;2.78;;
59167;SDS011;44948;55.046;73.266;2023-04-24T10:57:35;16.43;;;2.00;;
59167;SDS011;44948;55.046;73.266;2023-04-24T11:00:38;2.78;;;1.27;;
59167;SDS011;44948;55.046;73.266;2023-04-24T11:03:50;7.78;;;1.58;;
59167;SDS011;44948;55.046;73.266;2023-04-24T11:06:52;5.07;;;1.17;;
59167;SDS011;44948;55.046;73.266;2023-04-24T11:10:00;3.95;;;1.20;;
59167;SDS011;44948;55.046;73.266;2023-04-24T11:13:02;29.98;;;4.53;;
59167;SDS011;44948;55.046;73.266;2023-04-24T11:16:20;7.43;;;1.50;;
59167;SDS011;44948;55.046;73.266;2023-04-24T11:19:34;9.60;;;1.42;;
59167;SDS011;44948;55.046;73.266;2023-04-24T11:22:38;4.97;;;1.38;;
59167;SDS011;44948;55.046;73.266;2023-04-24T11:25:44;7.93;;;1.33;;
59167;SDS011;44948;55.046;73.266;2023-04-24T11:28:48;9.30;;;1.80;;
59167;SDS011;44948;55.046;73.266;2023-04-24T11:31:55;6.70;;;1.55;;
59167;SDS011;44948;55.046;73.266;2023-04-24T11:38:01;8.27;;;1.30;;
59167;SDS011;44948;55.046;73.266;2023-04-24T11:41:04;11.70;;;1.80;;
59167;SDS011;44948;55.046;73.266;2023-04-24T11:44:08;15.23;;;2.40;;
59167;SDS011;44948;55.046;73.266;2023-04-24T11:47:10;6.45;;;1.60;;
59167;SDS011;44948;55.046;73.266;2023-04-24T11:50:17;54.38;;;6.95;;
59167;SDS011;44948;55.046;73.266;2023-04-24T11:53:22;34.58;;;6.25;;
59167;SDS011;44948;55.046;73.266;2023-04-24T11:56:24;5.30;;;1.50;;
59167;SDS011;44948;55.046;73.266;2023-04-24T11:59:26;8.85;;;1.17;;
59167;SDS011;44948;55.046;73.266;2023-04-24T12:02:33;6.47;;;1.00;;
59167;SDS011;44948;55.046;73.266;2023-04-24T12:05:36;4.05;;;1.05;;
59167;SDS011;44948;55.046;73.266;2023-04-24T12:08:38;5.97;;;1.42;;
59167;SDS011;44948;55.046;73.266;2023-04-24T12:11:52;6.85;;;0.90;;
59167;SDS011;44948;55.046;73.266;2023-04-24T12:14:58;15.60;;;2.30;;
59167;SDS011;44948;55.046;73.266;2023-04-24T12:18:00;5.03;;;1.60;;
59167;SDS011;44948;55.046;73.266;2023-04-24T12:21:18;24.40;;;3.08;;
59167;SDS011;44948;55.046;73.266;2023-04-24T12:24:26;7.30;;;1.40;;
59167;SDS011;44948;55.046;73.266;2023-04-24T12:27:29;4.03;;;0.90;;
59167;SDS011;44948;55.046;73.266;2023-04-24T12:30:35;10.30;;;1.07;;
59167;SDS011;44948;55.046;73.266;2023-04-24T12:33:43;10.05;;;1.30;;
59167;SDS011;44948;55.046;73.266;2023-04-24T12:36:46;9.35;;;1.63;;
59167;SDS011;44948;55.046;73.266;2023-04-24T12:40:05;6.65;;;1.15;;
59167;SDS011;44948;55.046;73.266;2023-04-24T12:43:13;5.00;;;1.23;;
59167;SDS011;44948;55.046;73.266;2023-04-24T12:46:15;40.30;;;5.68;;
59167;SDS011;44948;55.046;73.266;2023-04-24T12:49:17;10.33;;;1.03;;
59167;SDS011;44948;55.046;73.266;2023-04-24T12:52:19;15.77;;;3.13;;
59167;SDS011;44948;55.046;73.266;2023-04-24T12:55:31;5.07;;;1.50;;
59167;SDS011;44948;55.046;73.266;2023-04-24T12:58:33;6.57;;;1.40;;
59167;SDS011;44948;55.046;73.266;2023-04-24T13:01:37;3.80;;;1.17;;
59167;SDS011;44948;55.046;73.266;2023-04-24T13:04:39;6.32;;;1.10;;
59167;SDS011;44948;55.046;73.266;2023-04-24T13:07:46;13.23;;;2.67;;
59167;SDS011;44948;55.046;73.266;2023-04-24T13:10:48;4.30;;;1.10;;
59167;SDS011;44948;55.046;73.266;2023-04-24T13:13:54;3.33;;;1.27;;
59167;SDS011;44948;55.046;73.266;2023-04-24T13:16:56;4.13;;;1.35;;
59167;SDS011;44948;55.046;73.266;2023-04-24T13:19:58;2.90;;;0.97;;
59167;SDS011;44948;55.046;73.266;2023-04-24T13:23:00;3.20;;;0.70;;
59167;SDS011;44948;55.046;73.266;2023-04-24T13:26:02;2.33;;;1.05;;
59167;SDS011;44948;55.046;73.266;2023-04-24T13:29:04;2.30;;;0.75;;
59167;SDS011;44948;55.046;73.266;2023-04-24T13:32:07;7.88;;;1.08;;
59167;SDS011;44948;55.046;73.266;2023-04-24T13:35:12;3.00;;;1.08;;
59167;SDS011;44948;55.046;73.266;2023-04-24T13:38:14;3.38;;;0.95;;
59167;SDS011;44948;55.046;73.266;2023-04-24T13:41:17;2.88;;;1.17;;
59167;SDS011;44948;55.046;73.266;2023-04-24T13:44:20;6.82;;;1.23;;
59167;SDS011;44948;55.046;73.266;2023-04-24T13:47:22;3.70;;;1.30;;
59167;SDS011;44948;55.046;73.266;2023-04-24T13:50:24;4.18;;;1.23;;
59167;SDS011;44948;55.046;73.266;2023-04-24T13:53:27;1.33;;;1.00;;
59167;SDS011;44948;55.046;73.266;2023-04-24T13:56:29;3.65;;;1.48;;
59167;SDS011;44948;55.046;73.266;2023-04-24T13:59:31;3.25;;;1.20;;
59167;SDS011;44948;55.046;73.266;2023-04-24T14:02:33;3.95;;;1.40;;
59167;SDS011;44948;55.046;73.266;2023-04-24T14:05:35;5.13;;;1.10;;
59167;SDS011;44948;55.046;73.266;2023-04-24T14:08:37;1.52;;;0.60;;
59167;SDS011;44948;55.046;73.266;2023-04-24T14:11:39;4.85;;;1.10;;
59167;SDS011;44948;55.046;73.266;2023-04-24T14:14:42;5.63;;;1.20;;
59167;SDS011;44948;55.046;73.266;2023-04-24T14:17:47;10.57;;;1.65;;
59167;SDS011;44948;55.046;73.266;2023-04-24T14:20:50;4.85;;;0.90;;
59167;SDS011;44948;55.046;73.266;2023-04-24T14:23:52;4.68;;;1.20;;
59167;SDS011;44948;55.046;73.266;2023-04-24T14:26:59;8.38;;;1.55;;
59167;SDS011;44948;55.046;73.266;2023-04-24T14:30:07;2.38;;;1.26;;
59167;SDS011;44948;55.046;73.266;2023-04-24T14:33:10;4.07;;;1.35;;
59167;SDS011;44948;55.046;73.266;2023-04-24T14:36:12;6.53;;;1.38;;
59167;SDS011;44948;55.046;73.266;2023-04-24T14:39:23;2.17;;;1.00;;
59167;SDS011;44948;55.046;73.266;2023-04-24T14:42:28;2.97;;;1.10;;
59167;SDS011;44948;55.046;73.266;2023-04-24T14:45:30;2.30;;;1.30;;
59167;SDS011;44948;55.046;73.266;2023-04-24T14:48:33;4.68;;;1.50;;
59167;SDS011;44948;55.046;73.266;2023-04-24T14:51:37;4.53;;;1.63;;
59167;SDS011;44948;55.046;73.266;2023-04-24T14:54:39;4.68;;;1.42;;
59167;SDS011;44948;55.046;73.266;2023-04-24T14:57:46;4.90;;;1.42;;
59167;SDS011;44948;55.046;73.266;2023-04-24T15:00:49;4.28;;;1.42;;
59167;SDS011;44948;55.046;73.266;2023-04-24T15:04:00;3.75;;;1.25;;
59167;SDS011;44948;55.046;73.266;2023-04-24T15:07:02;3.50;;;1.35;;
59167;SDS011;44948;55.046;73.266;2023-04-24T15:10:10;2.58;;;0.90;;
59167;SDS011;44948;55.046;73.266;2023-04-24T15:13:12;2.97;;;1.00;;
59167;SDS011;44948;55.046;73.266;2023-04-24T15:16:14;3.55;;;1.73;;
59167;SDS011;44948;55.046;73.266;2023-04-24T15:19:17;4.80;;;1.90;;
59167;SDS011;44948;55.046;73.266;2023-04-24T15:22:19;4.03;;;1.65;;
59167;SDS011;44948;55.046;73.266;2023-04-24T15:25:21;4.70;;;1.30;;
59167;SDS011;44948;55.046;73.266;2023-04-24T15:28:24;2.90;;;0.70;;
59167;SDS011;44948;55.046;73.266;2023-04-24T15:31:26;4.13;;;1.08;;
59167;SDS011;44948;55.046;73.266;2023-04-24T15:34:41;2.35;;;0.90;;
59167;SDS011;44948;55.046;73.266;2023-04-24T15:37:43;2.25;;;0.93;;
59167;SDS011;44948;55.046;73.266;2023-04-24T15:40:46;3.17;;;1.20;;
59167;SDS011;44948;55.046;73.266;2023-04-24T15:43:50;2.90;;;1.40;;
59167;SDS011;44948;55.046;73.266;2023-04-24T15:46:52;2.28;;;0.95;;
59167;SDS011;44948;55.046;73.266;2023-04-24T15:49:54;5.82;;;0.98;;
59167;SDS011;44948;55.046;73.266;2023-04-24T15:52:57;1.92;;;0.93;;
59167;SDS011;44948;55.046;73.266;2023-04-24T15:55:59;4.00;;;0.80;;
59167;SDS011;44948;55.046;73.266;2023-04-24T15:59:01;2.80;;;1.05;;
59167;SDS011;44948;55.046;73.266;2023-04-24T16:02:04;4.68;;;1.20;;
59167;SDS011;44948;55.046;73.266;2023-04-24T16:05:06;4.47;;;1.40;;
59167;SDS011;44948;55.046;73.266;2023-04-24T16:08:09;9.32;;;2.05;;
59167;SDS011;44948;55.046;73.266;2023-04-24T16:11:11;3.93;;;1.87;;
59167;SDS011;44948;55.046;73.266;2023-04-24T16:14:13;4.97;;;1.75;;
59167;SDS011;44948;55.046;73.266;2023-04-24T16:17:15;6.45;;;2.20;;
59167;SDS011;44948;55.046;73.266;2023-04-24T16:20:17;5.97;;;1.90;;
59167;SDS011;44948;55.046;73.266;2023-04-24T16:23:19;3.67;;;1.80;;
59167;SDS011;44948;55.046;73.266;2023-04-24T16:26:22;9.70;;;1.70;;
59167;SDS011;44948;55.046;73.266;2023-04-24T16:29:33;5.38;;;1.60;;
59167;SDS011;44948;55.046;73.266;2023-04-24T16:32:35;5.55;;;1.73;;
59167;SDS011;44948;55.046;73.266;2023-04-24T16:38:45;1.27;;;0.73;;
59167;SDS011;44948;55.046;73.266;2023-04-24T16:41:47;5.93;;;0.80;;
59167;SDS011;44948;55.046;73.266;2023-04-24T16:44:50;2.25;;;0.60;;
59167;SDS011;44948;55.046;73.266;2023-04-24T16:47:52;1.52;;;0.80;;
59167;SDS011;44948;55.046;73.266;2023-04-24T16:50:54;1.88;;;0.80;;
59167;SDS011;44948;55.046;73.266;2023-04-24T16:53:56;3.83;;;0.93;;
59167;SDS011;44948;55.046;73.266;2023-04-24T16:56:58;5.43;;;1.08;;
59167;SDS011;44948;55.046;73.266;2023-04-24T17:00:00;1.70;;;0.90;;
59167;SDS011;44948;55.046;73.266;2023-04-24T17:03:02;8.10;;;1.27;;
59167;SDS011;44948;55.046;73.266;2023-04-24T17:06:15;2.72;;;0.88;;
59167;SDS011;44948;55.046;73.266;2023-04-24T17:09:17;7.03;;;1.20;;
59167;SDS011;44948;55.046;73.266;2023-04-24T17:12:18;3.33;;;1.25;;
59167;SDS011;44948;55.046;73.266;2023-04-24T17:15:23;2.67;;;0.75;;
59167;SDS011;44948;55.046;73.266;2023-04-24T17:18:35;2.80;;;1.00;;
59167;SDS011;44948;55.046;73.266;2023-04-24T17:21:40;5.36;;;1.08;;
59167;SDS011;44948;55.046;73.266;2023-04-24T17:24:42;3.20;;;1.15;;
59167;SDS011;44948;55.046;73.266;2023-04-24T17:27:45;1.98;;;0.90;;
59167;SDS011;44948;55.046;73.266;2023-04-24T17:30:47;2.72;;;1.20;;
59167;SDS011;44948;55.046;73.266;2023-04-24T17:33:49;2.58;;;1.10;;
59167;SDS011;44948;55.046;73.266;2023-04-24T17:36:51;3.88;;;1.38;;
59167;SDS011;44948;55.046;73.266;2023-04-24T17:39:54;3.28;;;1.10;;
59167;SDS011;44948;55.046;73.266;2023-04-24T17:42:56;3.03;;;1.10;;
59167;SDS011;44948;55.046;73.266;2023-04-24T17:45:58;2.70;;;1.20;;
59167;SDS011;44948;55.046;73.266;2023-04-24T17:49:01;2.33;;;1.25;;
59167;SDS011;44948;55.046;73.266;2023-04-24T17:52:13;4.90;;;1.30;;
59167;SDS011;44948;55.046;73.266;2023-04-24T17:55:28;2.53;;;1.50;;
59167;SDS011;44948;55.046;73.266;2023-04-24T17:58:30;2.38;;;1.20;;
59167;SDS011;44948;55.046;73.266;2023-04-24T18:01:32;3.15;;;1.33;;
59167;SDS011;44948;55.046;73.266;2023-04-24T18:04:35;3.45;;;1.45;;
59167;SDS011;44948;55.046;73.266;2023-04-24T18:07:49;9.00;;;1.67;;
59167;SDS011;44948;55.046;73.266;2023-04-24T18:10:51;3.28;;;1.50;;
59167;SDS011;44948;55.046;73.266;2023-04-24T18:13:53;4.47;;;1.30;;
59167;SDS011;44948;55.046;73.266;2023-04-24T18:17:01;3.08;;;1.17;;
59167;SDS011;44948;55.046;73.266;2023-04-24T18:20:03;2.33;;;1.30;;